TimeCST,TemperatureF,Dew PointF,Humidity,Sea Level PressureIn,VisibilityMPH,Wind Direction,Wind SpeedMPH,Gust SpeedMPH,PrecipitationIn,Events,Conditions,WindDirDegrees,DateUTC
12:14 AM,24.8,19.4,80,29.78,10.0,WSW,5.8,-,N/A,,Mostly Cloudy,240,2013-02-13 06:14:00
12:34 AM,24.8,19.4,80,29.78,10.0,WSW,5.8,-,N/A,,Overcast,240,2013-02-13 06:34:00
12:54 AM,24.8,19.4,80,29.77,10.0,WSW,4.6,-,N/A,,Overcast,250,2013-02-13 06:54:00
1:14 AM,24.8,19.4,80,29.77,10.0,WSW,4.6,-,N/A,,Overcast,240,2013-02-13 07:14:00
1:33 AM,24.8,19.4,80,29.77,10.0,SW,4.6,-,N/A,,Scattered Clouds,230,2013-02-13 07:33:00
1:54 AM,23.0,19.4,86,29.76,10.0,SW,4.6,-,N/A,,Scattered Clouds,220,2013-02-13 07:54:00
2:14 AM,24.8,19.4,80,29.76,10.0,SW,4.6,-,N/A,,Mostly Cloudy,220,2013-02-13 08:14:00
2:33 AM,24.8,21.2,86,29.76,10.0,SW,4.6,-,N/A,,Overcast,230,2013-02-13 08:33:00
2:54 AM,24.8,21.2,86,29.75,10.0,SW,5.8,-,N/A,,Overcast,220,2013-02-13 08:54:00
3:14 AM,24.8,21.2,86,29.75,10.0,SW,4.6,-,N/A,,Overcast,230,2013-02-13 09:14:00
3:33 AM,24.8,21.2,86,29.74,10.0,SW,4.6,-,N/A,,Overcast,230,2013-02-13 09:33:00
3:54 AM,24.8,21.2,86,29.74,10.0,WSW,5.8,-,N/A,,Overcast,250,2013-02-13 09:54:00
4:14 AM,24.8,21.2,86,29.74,10.0,SW,4.6,-,N/A,,Mostly Cloudy,230,2013-02-13 10:14:00
4:33 AM,24.8,21.2,86,29.73,10.0,SSW,4.6,-,N/A,,Clear,210,2013-02-13 10:33:00
4:54 AM,24.8,21.2,86,29.74,10.0,SSW,3.5,-,N/A,,Clear,210,2013-02-13 10:54:00
5:14 AM,24.8,21.2,86,29.73,10.0,SW,3.5,-,N/A,,Mostly Cloudy,220,2013-02-13 11:14:00
5:33 AM,24.8,21.2,86,29.74,10.0,SW,4.6,-,N/A,,Overcast,220,2013-02-13 11:33:00
5:54 AM,24.8,21.2,86,29.73,10.0,SSW,4.6,-,N/A,,Overcast,210,2013-02-13 11:54:00
6:14 AM,24.8,21.2,86,29.72,10.0,SSW,3.5,-,N/A,,Overcast,210,2013-02-13 12:14:00
6:34 AM,24.8,21.2,86,29.71,10.0,South,3.5,-,N/A,,Overcast,190,2013-02-13 12:34:00
6:45 AM,24.8,21.2,86,29.71,10.0,WSW,5.8,-,N/A,,Overcast,240,2013-02-13 12:45:00
6:54 AM,24.8,21.2,86,29.71,10.0,SSW,3.5,-,N/A,,Overcast,200,2013-02-13 12:54:00
7:45 AM,24.8,21.2,86,29.71,10.0,SW,3.5,-,N/A,,Overcast,220,2013-02-13 13:45:00
8:45 AM,24.8,21.2,86,29.70,10.0,South,8.1,-,N/A,,Mostly Cloudy,190,2013-02-13 14:45:00
9:45 AM,24.8,21.2,86,29.69,10.0,SSW,8.1,-,N/A,,Mostly Cloudy,200,2013-02-13 15:45:00
10:50 AM,28.4,21.2,74,29.69,10.0,SSW,8.1,-,N/A,,Mostly Cloudy,210,2013-02-13 16:50:00
11:50 AM,33.8,24.8,70,29.68,10.0,SSW,8.1,-,N/A,,Mostly Cloudy,200,2013-02-13 17:50:00
2:50 PM,39.2,28.4,65,29.61,10.0,South,6.9,-,N/A,,Overcast,190,2013-02-13 20:50:00
5:25 PM,35.6,32.0,87,29.61,2.5,SW,5.8,-,N/A,Snow,Light Snow,220,2013-02-13 23:25:00
5:45 PM,35.6,33.8,93,29.61,2.5,SW,3.5,-,N/A,Snow,Light Snow,230,2013-02-13 23:45:00
6:45 PM,33.8,33.8,100,29.60,2.0,Calm,Calm,-,N/A,Snow,Light Snow,0,2013-02-14 00:45:00
7:45 PM,33.8,33.8,100,29.58,1.5,East,3.5,-,N/A,Snow,Light Snow,100,2013-02-14 01:45:00
8:45 PM,33.8,33.8,100,29.58,1.0,East,3.5,-,N/A,Snow,Light Snow,90,2013-02-14 02:45:00
9:13 PM,33.8,33.8,100,29.56,1.0,East,3.5,-,N/A,Snow,Light Snow,80,2013-02-14 03:13:00
9:34 PM,33.8,33.8,100,29.55,1.0,ENE,3.5,-,N/A,Snow,Light Snow,70,2013-02-14 03:34:00
9:54 PM,33.8,33.8,100,29.55,1.2,Calm,Calm,-,N/A,,Overcast,0,2013-02-14 03:54:00
10:13 PM,33.8,33.8,100,29.55,1.0,NNE,4.6,-,N/A,,Overcast,20,2013-02-14 04:13:00
10:34 PM,33.8,33.8,100,29.56,1.0,NNE,4.6,-,N/A,,Overcast,20,2013-02-14 04:34:00
10:54 PM,33.8,33.8,100,29.56,1.2,NNE,5.8,-,N/A,,Overcast,20,2013-02-14 04:54:00
11:13 PM,33.8,33.8,100,29.56,1.2,North,8.1,-,N/A,,Overcast,10,2013-02-14 05:13:00
11:34 PM,33.8,33.8,100,29.57,1.2,North,5.8,-,N/A,,Overcast,10,2013-02-14 05:34:00
11:53 PM,33.8,33.8,100,29.57,1.5,North,8.1,-,N/A,,Overcast,10,2013-02-14 05:53:00